sensor_id;sensor_type;location;lat;lon;timestamp;P1;durP1;ratioP1;P2;durP2;ratioP2
21569;SDS011;57598;50.888;4.746;2023-12-20T00:16:45;62.42;;;56.22;;
21569;SDS011;57598;50.888;4.746;2023-12-20T00:19:13;61.65;;;55.55;;
21569;SDS011;57598;50.888;4.746;2023-12-20T00:21:41;61.13;;;55.13;;
21569;SDS011;57598;50.888;4.746;2023-12-20T00:24:08;62.15;;;55.97;;
21569;SDS011;57598;50.888;4.746;2023-12-20T00:26:36;61.38;;;54.75;;
21569;SDS011;57598;50.888;4.746;2023-12-20T00:29:04;65.07;;;51.25;;
21569;SDS011;57598;50.888;4.746;2023-12-20T00:31:33;54.80;;;48.90;;
21569;SDS011;57598;50.888;4.746;2023-12-20T00:34:03;51.88;;;46.28;;
21569;SDS011;57598;50.888;4.746;2023-12-20T00:36:31;63.13;;;47.15;;
21569;SDS011;57598;50.888;4.746;2023-12-20T00:39:00;53.13;;;47.45;;
21569;SDS011;57598;50.888;4.746;2023-12-20T00:41:28;53.78;;;46.83;;
21569;SDS011;57598;50.888;4.746;2023-12-20T00:43:56;55.83;;;45.92;;
21569;SDS011;57598;50.888;4.746;2023-12-20T00:46:25;56.60;;;45.47;;
21569;SDS011;57598;50.888;4.746;2023-12-20T00:48:53;55.95;;;44.78;;
21569;SDS011;57598;50.888;4.746;2023-12-20T00:51:23;67.97;;;49.40;;
21569;SDS011;57598;50.888;4.746;2023-12-20T00:53:50;65.25;;;46.35;;
21569;SDS011;57598;50.888;4.746;2023-12-20T00:56:20;64.32;;;46.63;;
21569;SDS011;57598;50.888;4.746;2023-12-20T00:58:48;57.88;;;44.90;;
21569;SDS011;57598;50.888;4.746;2023-12-20T01:01:17;57.15;;;44.35;;
21569;SDS011;57598;50.888;4.746;2023-12-20T01:03:45;58.35;;;44.38;;
21569;SDS011;57598;50.888;4.746;2023-12-20T01:06:13;64.97;;;50.20;;
21569;SDS011;57598;50.888;4.746;2023-12-20T01:08:43;67.32;;;46.67;;
21569;SDS011;57598;50.888;4.746;2023-12-20T01:11:12;64.72;;;48.75;;
21569;SDS011;57598;50.888;4.746;2023-12-20T01:13:41;72.47;;;50.95;;
21569;SDS011;57598;50.888;4.746;2023-12-20T01:16:10;68.97;;;46.50;;
21569;SDS011;57598;50.888;4.746;2023-12-20T01:18:39;63.67;;;46.47;;
21569;SDS011;57598;50.888;4.746;2023-12-20T01:21:08;59.88;;;45.53;;
21569;SDS011;57598;50.888;4.746;2023-12-20T01:23:36;62.17;;;46.05;;
21569;SDS011;57598;50.888;4.746;2023-12-20T01:26:08;62.10;;;46.05;;
21569;SDS011;57598;50.888;4.746;2023-12-20T01:28:37;66.95;;;49.42;;
21569;SDS011;57598;50.888;4.746;2023-12-20T01:31:05;66.65;;;45.35;;
21569;SDS011;57598;50.888;4.746;2023-12-20T01:33:33;58.03;;;46.10;;
21569;SDS011;57598;50.888;4.746;2023-12-20T01:36:02;60.25;;;47.80;;
21569;SDS011;57598;50.888;4.746;2023-12-20T01:38:30;93.25;;;48.03;;
21569;SDS011;57598;50.888;4.746;2023-12-20T01:40:58;59.38;;;47.55;;
21569;SDS011;57598;50.888;4.746;2023-12-20T01:43:41;59.28;;;47.83;;
21569;SDS011;57598;50.888;4.746;2023-12-20T01:46:10;61.28;;;46.05;;
21569;SDS011;57598;50.888;4.746;2023-12-20T01:48:39;61.83;;;45.05;;
21569;SDS011;57598;50.888;4.746;2023-12-20T01:51:07;55.60;;;44.28;;
21569;SDS011;57598;50.888;4.746;2023-12-20T01:54:02;56.80;;;44.72;;
21569;SDS011;57598;50.888;4.746;2023-12-20T01:56:31;60.17;;;46.70;;
21569;SDS011;57598;50.888;4.746;2023-12-20T01:59:01;56.63;;;45.72;;
21569;SDS011;57598;50.888;4.746;2023-12-20T02:01:29;57.50;;;46.17;;
21569;SDS011;57598;50.888;4.746;2023-12-20T02:03:58;63.67;;;47.70;;
21569;SDS011;57598;50.888;4.746;2023-12-20T02:06:27;81.07;;;48.97;;
21569;SDS011;57598;50.888;4.746;2023-12-20T02:08:57;60.83;;;46.92;;
21569;SDS011;57598;50.888;4.746;2023-12-20T02:11:26;56.75;;;45.53;;
21569;SDS011;57598;50.888;4.746;2023-12-20T02:13:55;62.58;;;48.05;;
21569;SDS011;57598;50.888;4.746;2023-12-20T02:16:24;59.70;;;47.10;;
21569;SDS011;57598;50.888;4.746;2023-12-20T02:18:53;62.92;;;46.60;;
21569;SDS011;57598;50.888;4.746;2023-12-20T02:21:33;74.30;;;46.70;;
21569;SDS011;57598;50.888;4.746;2023-12-20T02:24:02;57.50;;;47.28;;
21569;SDS011;57598;50.888;4.746;2023-12-20T02:26:31;56.60;;;45.80;;
21569;SDS011;57598;50.888;4.746;2023-12-20T02:29:03;71.53;;;49.15;;
21569;SDS011;57598;50.888;4.746;2023-12-20T02:31:32;60.13;;;46.17;;
21569;SDS011;57598;50.888;4.746;2023-12-20T02:34:02;56.03;;;46.88;;
21569;SDS011;57598;50.888;4.746;2023-12-20T02:36:34;54.90;;;44.63;;
21569;SDS011;57598;50.888;4.746;2023-12-20T02:39:05;70.15;;;46.28;;
21569;SDS011;57598;50.888;4.746;2023-12-20T02:41:33;57.63;;;44.92;;
21569;SDS011;57598;50.888;4.746;2023-12-20T02:44:01;57.97;;;45.55;;
21569;SDS011;57598;50.888;4.746;2023-12-20T02:46:30;54.97;;;43.60;;
21569;SDS011;57598;50.888;4.746;2023-12-20T02:48:59;58.78;;;45.88;;
21569;SDS011;57598;50.888;4.746;2023-12-20T02:51:27;54.50;;;43.40;;
21569;SDS011;57598;50.888;4.746;2023-12-20T02:54:01;60.25;;;45.53;;
21569;SDS011;57598;50.888;4.746;2023-12-20T02:56:32;58.65;;;46.42;;
21569;SDS011;57598;50.888;4.746;2023-12-20T03:01:31;55.83;;;45.85;;
21569;SDS011;57598;50.888;4.746;2023-12-20T03:04:00;65.72;;;46.97;;
21569;SDS011;57598;50.888;4.746;2023-12-20T03:06:32;63.08;;;45.42;;
21569;SDS011;57598;50.888;4.746;2023-12-20T03:09:03;58.42;;;48.55;;
21569;SDS011;57598;50.888;4.746;2023-12-20T03:11:34;59.92;;;50.13;;
21569;SDS011;57598;50.888;4.746;2023-12-20T03:14:06;56.67;;;46.13;;
21569;SDS011;57598;50.888;4.746;2023-12-20T03:16:34;62.85;;;51.63;;
21569;SDS011;57598;50.888;4.746;2023-12-20T03:19:06;57.85;;;46.65;;
21569;SDS011;57598;50.888;4.746;2023-12-20T03:21:36;57.92;;;48.35;;
21569;SDS011;57598;50.888;4.746;2023-12-20T03:24:07;58.08;;;46.95;;
21569;SDS011;57598;50.888;4.746;2023-12-20T03:26:36;57.97;;;46.03;;
21569;SDS011;57598;50.888;4.746;2023-12-20T03:29:04;62.30;;;45.70;;
21569;SDS011;57598;50.888;4.746;2023-12-20T03:31:32;57.50;;;46.45;;
21569;SDS011;57598;50.888;4.746;2023-12-20T03:33:59;65.75;;;48.78;;
21569;SDS011;57598;50.888;4.746;2023-12-20T03:36:27;67.28;;;48.90;;
21569;SDS011;57598;50.888;4.746;2023-12-20T03:38:55;59.55;;;48.15;;
21569;SDS011;57598;50.888;4.746;2023-12-20T03:41:24;56.85;;;46.85;;
21569;SDS011;57598;50.888;4.746;2023-12-20T03:43:52;61.33;;;46.10;;
21569;SDS011;57598;50.888;4.746;2023-12-20T03:46:19;57.75;;;45.55;;
21569;SDS011;57598;50.888;4.746;2023-12-20T03:48:47;57.78;;;46.47;;
21569;SDS011;57598;50.888;4.746;2023-12-20T03:51:14;68.32;;;50.90;;
21569;SDS011;57598;50.888;4.746;2023-12-20T03:53:43;64.38;;;47.78;;
21569;SDS011;57598;50.888;4.746;2023-12-20T03:56:13;73.15;;;50.38;;
21569;SDS011;57598;50.888;4.746;2023-12-20T03:58:43;63.78;;;48.47;;
21569;SDS011;57598;50.888;4.746;2023-12-20T04:01:14;63.08;;;50.50;;
21569;SDS011;57598;50.888;4.746;2023-12-20T04:03:43;57.25;;;46.58;;
21569;SDS011;57598;50.888;4.746;2023-12-20T04:06:16;55.95;;;45.67;;
21569;SDS011;57598;50.888;4.746;2023-12-20T04:08:43;60.47;;;46.70;;
21569;SDS011;57598;50.888;4.746;2023-12-20T04:11:12;60.42;;;48.40;;
21569;SDS011;57598;50.888;4.746;2023-12-20T04:13:40;63.70;;;49.50;;
21569;SDS011;57598;50.888;4.746;2023-12-20T04:16:10;59.15;;;47.92;;
21569;SDS011;57598;50.888;4.746;2023-12-20T04:18:38;59.33;;;49.45;;
21569;SDS011;57598;50.888;4.746;2023-12-20T04:21:05;64.45;;;48.78;;
21569;SDS011;57598;50.888;4.746;2023-12-20T04:23:35;63.03;;;47.47;;
21569;SDS011;57598;50.888;4.746;2023-12-20T04:26:03;62.78;;;50.90;;
21569;SDS011;57598;50.888;4.746;2023-12-20T04:28:31;66.13;;;49.65;;
21569;SDS011;57598;50.888;4.746;2023-12-20T04:30:59;63.17;;;49.17;;
21569;SDS011;57598;50.888;4.746;2023-12-20T04:33:28;77.70;;;49.63;;
21569;SDS011;57598;50.888;4.746;2023-12-20T04:35:58;66.20;;;49.40;;
21569;SDS011;57598;50.888;4.746;2023-12-20T04:38:26;60.72;;;50.45;;
21569;SDS011;57598;50.888;4.746;2023-12-20T04:40:54;58.75;;;48.42;;
21569;SDS011;57598;50.888;4.746;2023-12-20T04:43:22;70.03;;;52.10;;
21569;SDS011;57598;50.888;4.746;2023-12-20T04:45:50;64.90;;;51.72;;
21569;SDS011;57598;50.888;4.746;2023-12-20T04:48:17;63.05;;;49.03;;
21569;SDS011;57598;50.888;4.746;2023-12-20T04:50:47;60.03;;;49.85;;
21569;SDS011;57598;50.888;4.746;2023-12-20T04:53:15;66.10;;;53.22;;
21569;SDS011;57598;50.888;4.746;2023-12-20T04:55:42;61.88;;;48.80;;
21569;SDS011;57598;50.888;4.746;2023-12-20T04:58:09;59.00;;;46.55;;
21569;SDS011;57598;50.888;4.746;2023-12-20T05:00:37;56.92;;;48.33;;
21569;SDS011;57598;50.888;4.746;2023-12-20T05:03:04;68.22;;;51.30;;
21569;SDS011;57598;50.888;4.746;2023-12-20T05:05:31;56.78;;;49.58;;
21569;SDS011;57598;50.888;4.746;2023-12-20T05:08:00;55.13;;;47.90;;
21569;SDS011;57598;50.888;4.746;2023-12-20T05:10:27;53.75;;;44.88;;
21569;SDS011;57598;50.888;4.746;2023-12-20T05:12:55;62.15;;;50.90;;
21569;SDS011;57598;50.888;4.746;2023-12-20T05:15:22;57.88;;;51.10;;
21569;SDS011;57598;50.888;4.746;2023-12-20T05:17:49;60.33;;;50.17;;
21569;SDS011;57598;50.888;4.746;2023-12-20T05:20:17;67.03;;;51.80;;
21569;SDS011;57598;50.888;4.746;2023-12-20T05:22:44;66.78;;;49.67;;
21569;SDS011;57598;50.888;4.746;2023-12-20T05:25:13;55.25;;;47.47;;
21569;SDS011;57598;50.888;4.746;2023-12-20T05:27:41;58.60;;;51.75;;
21569;SDS011;57598;50.888;4.746;2023-12-20T05:30:08;55.50;;;48.05;;
21569;SDS011;57598;50.888;4.746;2023-12-20T05:32:36;61.63;;;49.45;;
21569;SDS011;57598;50.888;4.746;2023-12-20T05:35:03;54.20;;;48.20;;
21569;SDS011;57598;50.888;4.746;2023-12-20T05:37:31;59.90;;;51.90;;
21569;SDS011;57598;50.888;4.746;2023-12-20T05:39:58;58.97;;;48.13;;
21569;SDS011;57598;50.888;4.746;2023-12-20T05:42:27;56.50;;;48.92;;
21569;SDS011;57598;50.888;4.746;2023-12-20T05:44:54;64.60;;;50.83;;
21569;SDS011;57598;50.888;4.746;2023-12-20T05:47:21;67.25;;;49.50;;
21569;SDS011;57598;50.888;4.746;2023-12-20T05:49:49;56.92;;;47.90;;
21569;SDS011;57598;50.888;4.746;2023-12-20T05:52:16;53.47;;;47.78;;
21569;SDS011;57598;50.888;4.746;2023-12-20T05:54:43;61.95;;;47.90;;
21569;SDS011;57598;50.888;4.746;2023-12-20T05:57:11;57.38;;;47.25;;
21569;SDS011;57598;50.888;4.746;2023-12-20T05:59:39;52.60;;;45.08;;
21569;SDS011;57598;50.888;4.746;2023-12-20T06:02:06;57.15;;;45.33;;
21569;SDS011;57598;50.888;4.746;2023-12-20T06:04:34;63.80;;;47.58;;
21569;SDS011;57598;50.888;4.746;2023-12-20T06:07:02;49.70;;;42.60;;
21569;SDS011;57598;50.888;4.746;2023-12-20T06:09:29;53.25;;;44.53;;
21569;SDS011;57598;50.888;4.746;2023-12-20T06:11:56;50.65;;;43.45;;
21569;SDS011;57598;50.888;4.746;2023-12-20T06:14:24;50.78;;;42.53;;
21569;SDS011;57598;50.888;4.746;2023-12-20T06:16:52;66.88;;;44.25;;
21569;SDS011;57598;50.888;4.746;2023-12-20T06:19:20;49.90;;;42.80;;
21569;SDS011;57598;50.888;4.746;2023-12-20T06:21:47;54.47;;;45.47;;
21569;SDS011;57598;50.888;4.746;2023-12-20T06:24:14;51.72;;;42.28;;
21569;SDS011;57598;50.888;4.746;2023-12-20T06:26:41;51.65;;;44.22;;
21569;SDS011;57598;50.888;4.746;2023-12-20T06:29:09;57.80;;;45.38;;
21569;SDS011;57598;50.888;4.746;2023-12-20T06:31:36;61.63;;;45.67;;
21569;SDS011;57598;50.888;4.746;2023-12-20T06:34:05;56.92;;;46.08;;
21569;SDS011;57598;50.888;4.746;2023-12-20T06:36:32;61.45;;;43.83;;
21569;SDS011;57598;50.888;4.746;2023-12-20T06:39:00;55.35;;;45.80;;
21569;SDS011;57598;50.888;4.746;2023-12-20T06:41:30;59.85;;;45.58;;
21569;SDS011;57598;50.888;4.746;2023-12-20T06:43:57;56.00;;;47.97;;
21569;SDS011;57598;50.888;4.746;2023-12-20T06:46:24;55.13;;;47.40;;
21569;SDS011;57598;50.888;4.746;2023-12-20T06:48:51;52.40;;;44.85;;
21569;SDS011;57598;50.888;4.746;2023-12-20T06:51:20;56.55;;;45.72;;
21569;SDS011;57598;50.888;4.746;2023-12-20T06:53:50;54.95;;;46.22;;
21569;SDS011;57598;50.888;4.746;2023-12-20T06:56:17;51.90;;;43.13;;
21569;SDS011;57598;50.888;4.746;2023-12-20T06:58:45;67.07;;;48.70;;
21569;SDS011;57598;50.888;4.746;2023-12-20T07:01:12;64.50;;;50.05;;
21569;SDS011;57598;50.888;4.746;2023-12-20T07:03:39;55.75;;;46.17;;
21569;SDS011;57598;50.888;4.746;2023-12-20T07:06:07;51.22;;;42.13;;
21569;SDS011;57598;50.888;4.746;2023-12-20T07:08:35;47.92;;;41.35;;
21569;SDS011;57598;50.888;4.746;2023-12-20T07:11:03;49.22;;;42.47;;
21569;SDS011;57598;50.888;4.746;2023-12-20T07:13:30;54.17;;;41.70;;
21569;SDS011;57598;50.888;4.746;2023-12-20T07:15:57;52.97;;;45.70;;
21569;SDS011;57598;50.888;4.746;2023-12-20T07:18:25;54.08;;;42.17;;
21569;SDS011;57598;50.888;4.746;2023-12-20T07:20:52;52.08;;;45.63;;
21569;SDS011;57598;50.888;4.746;2023-12-20T07:23:20;58.35;;;43.05;;
21569;SDS011;57598;50.888;4.746;2023-12-20T07:25:49;52.25;;;45.08;;
21569;SDS011;57598;50.888;4.746;2023-12-20T07:28:16;51.55;;;45.38;;
21569;SDS011;57598;50.888;4.746;2023-12-20T07:30:43;55.13;;;44.33;;
21569;SDS011;57598;50.888;4.746;2023-12-20T07:33:11;50.17;;;43.22;;
21569;SDS011;57598;50.888;4.746;2023-12-20T07:35:38;52.58;;;46.55;;
21569;SDS011;57598;50.888;4.746;2023-12-20T07:38:06;65.05;;;47.72;;
21569;SDS011;57598;50.888;4.746;2023-12-20T07:40:34;60.70;;;45.50;;
21569;SDS011;57598;50.888;4.746;2023-12-20T07:43:03;50.55;;;45.05;;
21569;SDS011;57598;50.888;4.746;2023-12-20T07:45:31;56.65;;;46.90;;
21569;SDS011;57598;50.888;4.746;2023-12-20T07:47:58;65.07;;;44.83;;
21569;SDS011;57598;50.888;4.746;2023-12-20T07:50:25;53.63;;;45.22;;
21569;SDS011;57598;50.888;4.746;2023-12-20T07:52:52;67.13;;;46.38;;
21569;SDS011;57598;50.888;4.746;2023-12-20T07:55:20;63.10;;;46.53;;
21569;SDS011;57598;50.888;4.746;2023-12-20T07:57:47;54.92;;;47.78;;
21569;SDS011;57598;50.888;4.746;2023-12-20T08:00:17;60.67;;;48.75;;
21569;SDS011;57598;50.888;4.746;2023-12-20T08:02:44;52.78;;;47.08;;
21569;SDS011;57598;50.888;4.746;2023-12-20T08:05:11;54.78;;;48.88;;
21569;SDS011;57598;50.888;4.746;2023-12-20T08:07:39;54.65;;;48.83;;
21569;SDS011;57598;50.888;4.746;2023-12-20T08:10:06;58.20;;;51.60;;
21569;SDS011;57598;50.888;4.746;2023-12-20T08:12:34;62.67;;;49.67;;
21569;SDS011;57598;50.888;4.746;2023-12-20T08:15:01;60.00;;;50.58;;
21569;SDS011;57598;50.888;4.746;2023-12-20T08:17:30;55.30;;;49.50;;
21569;SDS011;57598;50.888;4.746;2023-12-20T08:19:57;54.83;;;48.65;;
21569;SDS011;57598;50.888;4.746;2023-12-20T08:22:25;58.92;;;50.90;;
21569;SDS011;57598;50.888;4.746;2023-12-20T08:24:52;57.17;;;49.70;;
21569;SDS011;57598;50.888;4.746;2023-12-20T08:27:19;61.97;;;49.75;;
21569;SDS011;57598;50.888;4.746;2023-12-20T08:29:47;55.22;;;49.53;;
21569;SDS011;57598;50.888;4.746;2023-12-20T08:32:15;55.08;;;49.38;;
21569;SDS011;57598;50.888;4.746;2023-12-20T08:34:43;68.55;;;53.58;;
21569;SDS011;57598;50.888;4.746;2023-12-20T08:37:11;59.90;;;51.80;;
21569;SDS011;57598;50.888;4.746;2023-12-20T08:39:38;59.00;;;52.72;;
21569;SDS011;57598;50.888;4.746;2023-12-20T08:42:05;55.80;;;50.05;;
21569;SDS011;57598;50.888;4.746;2023-12-20T08:44:33;59.97;;;53.03;;
21569;SDS011;57598;50.888;4.746;2023-12-20T08:47:00;62.35;;;55.60;;
21569;SDS011;57598;50.888;4.746;2023-12-20T08:49:27;60.03;;;53.88;;
21569;SDS011;57598;50.888;4.746;2023-12-20T08:51:56;62.90;;;56.70;;
21569;SDS011;57598;50.888;4.746;2023-12-20T08:54:24;62.67;;;55.47;;
21569;SDS011;57598;50.888;4.746;2023-12-20T08:56:51;65.50;;;57.05;;
21569;SDS011;57598;50.888;4.746;2023-12-20T08:59:18;70.28;;;60.25;;
21569;SDS011;57598;50.888;4.746;2023-12-20T09:01:45;65.25;;;58.50;;
21569;SDS011;57598;50.888;4.746;2023-12-20T09:04:13;68.18;;;60.85;;
21569;SDS011;57598;50.888;4.746;2023-12-20T09:06:40;65.78;;;59.03;;
21569;SDS011;57598;50.888;4.746;2023-12-20T09:09:09;65.68;;;58.33;;
21569;SDS011;57598;50.888;4.746;2023-12-20T09:11:38;68.20;;;60.83;;
21569;SDS011;57598;50.888;4.746;2023-12-20T09:14:06;60.40;;;54.20;;
21569;SDS011;57598;50.888;4.746;2023-12-20T09:16:33;57.65;;;51.53;;
21569;SDS011;57598;50.888;4.746;2023-12-20T09:19:00;56.38;;;50.58;;
21569;SDS011;57598;50.888;4.746;2023-12-20T09:21:28;56.80;;;50.97;;
21569;SDS011;57598;50.888;4.746;2023-12-20T09:23:55;54.63;;;48.88;;
21569;SDS011;57598;50.888;4.746;2023-12-20T09:26:23;56.38;;;50.35;;
21569;SDS011;57598;50.888;4.746;2023-12-20T09:28:51;56.53;;;50.70;;
21569;SDS011;57598;50.888;4.746;2023-12-20T09:31:18;61.67;;;55.13;;
21569;SDS011;57598;50.888;4.746;2023-12-20T09:33:45;60.10;;;53.63;;
21569;SDS011;57598;50.888;4.746;2023-12-20T09:36:13;59.10;;;53.30;;
21569;SDS011;57598;50.888;4.746;2023-12-20T09:38:40;56.80;;;50.92;;
21569;SDS011;57598;50.888;4.746;2023-12-20T09:41:07;64.28;;;54.33;;
21569;SDS011;57598;50.888;4.746;2023-12-20T09:43:37;58.22;;;51.30;;
21569;SDS011;57598;50.888;4.746;2023-12-20T09:46:05;59.05;;;53.88;;
21569;SDS011;57598;50.888;4.746;2023-12-20T09:48:33;56.40;;;51.70;;
21569;SDS011;57598;50.888;4.746;2023-12-20T09:51:00;56.38;;;51.20;;
21569;SDS011;57598;50.888;4.746;2023-12-20T09:53:27;59.45;;;54.85;;
21569;SDS011;57598;50.888;4.746;2023-12-20T09:55:56;59.15;;;54.35;;
21569;SDS011;57598;50.888;4.746;2023-12-20T09:58:25;59.85;;;55.47;;
21569;SDS011;57598;50.888;4.746;2023-12-20T10:00:54;58.72;;;53.72;;
21569;SDS011;57598;50.888;4.746;2023-12-20T10:03:23;57.33;;;53.15;;
21569;SDS011;57598;50.888;4.746;2023-12-20T10:05:52;55.30;;;51.10;;
21569;SDS011;57598;50.888;4.746;2023-12-20T10:08:21;53.28;;;49.55;;
21569;SDS011;57598;50.888;4.746;2023-12-20T10:10:48;55.95;;;52.22;;
21569;SDS011;57598;50.888;4.746;2023-12-20T10:13:16;54.83;;;51.17;;
21569;SDS011;57598;50.888;4.746;2023-12-20T10:15:43;57.47;;;53.42;;
21569;SDS011;57598;50.888;4.746;2023-12-20T10:18:12;59.40;;;55.15;;
21569;SDS011;57598;50.888;4.746;2023-12-20T10:20:40;60.88;;;56.72;;
21569;SDS011;57598;50.888;4.746;2023-12-20T10:23:07;62.72;;;58.17;;
21569;SDS011;57598;50.888;4.746;2023-12-20T10:25:35;67.05;;;62.65;;
21569;SDS011;57598;50.888;4.746;2023-12-20T10:28:09;61.63;;;57.30;;
21569;SDS011;57598;50.888;4.746;2023-12-20T10:30:36;67.07;;;62.10;;
21569;SDS011;57598;50.888;4.746;2023-12-20T10:33:05;61.22;;;57.25;;
21569;SDS011;57598;50.888;4.746;2023-12-20T10:35:34;63.63;;;58.65;;
21569;SDS011;57598;50.888;4.746;2023-12-20T10:38:03;61.83;;;57.42;;
21569;SDS011;57598;50.888;4.746;2023-12-20T10:40:30;65.45;;;59.03;;
21569;SDS011;57598;50.888;4.746;2023-12-20T10:42:58;60.80;;;56.65;;
21569;SDS011;57598;50.888;4.746;2023-12-20T10:45:27;60.70;;;56.45;;
21569;SDS011;57598;50.888;4.746;2023-12-20T10:47:54;60.22;;;56.30;;
21569;SDS011;57598;50.888;4.746;2023-12-20T10:50:24;61.42;;;57.25;;
21569;SDS011;57598;50.888;4.746;2023-12-20T10:52:53;65.60;;;60.22;;
21569;SDS011;57598;50.888;4.746;2023-12-20T10:55:21;68.20;;;62.63;;
21569;SDS011;57598;50.888;4.746;2023-12-20T10:57:49;63.28;;;59.38;;
21569;SDS011;57598;50.888;4.746;2023-12-20T11:00:17;71.55;;;66.28;;
21569;SDS011;57598;50.888;4.746;2023-12-20T11:02:44;65.30;;;61.10;;
21569;SDS011;57598;50.888;4.746;2023-12-20T11:05:15;67.35;;;62.42;;
21569;SDS011;57598;50.888;4.746;2023-12-20T11:07:47;64.90;;;60.15;;
21569;SDS011;57598;50.888;4.746;2023-12-20T11:10:16;62.65;;;58.35;;
21569;SDS011;57598;50.888;4.746;2023-12-20T11:12:47;62.60;;;58.00;;
21569;SDS011;57598;50.888;4.746;2023-12-20T11:15:16;67.55;;;62.35;;
21569;SDS011;57598;50.888;4.746;2023-12-20T11:17:44;65.22;;;60.70;;
21569;SDS011;57598;50.888;4.746;2023-12-20T11:20:12;66.30;;;61.65;;
21569;SDS011;57598;50.888;4.746;2023-12-20T11:22:39;67.40;;;62.35;;
21569;SDS011;57598;50.888;4.746;2023-12-20T11:25:07;68.20;;;62.70;;
21569;SDS011;57598;50.888;4.746;2023-12-20T11:27:35;65.28;;;61.03;;
21569;SDS011;57598;50.888;4.746;2023-12-20T11:30:03;68.03;;;63.30;;
21569;SDS011;57598;50.888;4.746;2023-12-20T11:32:33;69.18;;;64.28;;
21569;SDS011;57598;50.888;4.746;2023-12-20T11:35:01;71.60;;;66.10;;
21569;SDS011;57598;50.888;4.746;2023-12-20T11:37:43;72.85;;;67.95;;
21569;SDS011;57598;50.888;4.746;2023-12-20T11:40:12;77.55;;;71.93;;
21569;SDS011;57598;50.888;4.746;2023-12-20T11:42:42;82.55;;;76.63;;
21569;SDS011;57598;50.888;4.746;2023-12-20T11:45:09;75.07;;;69.95;;
21569;SDS011;57598;50.888;4.746;2023-12-20T11:47:39;80.35;;;73.95;;
21569;SDS011;57598;50.888;4.746;2023-12-20T11:50:07;83.13;;;77.38;;
21569;SDS011;57598;50.888;4.746;2023-12-20T11:52:34;85.38;;;79.28;;
21569;SDS011;57598;50.888;4.746;2023-12-20T11:55:02;86.63;;;79.95;;
21569;SDS011;57598;50.888;4.746;2023-12-20T11:57:29;84.82;;;77.65;;
21569;SDS011;57598;50.888;4.746;2023-12-20T11:59:58;86.90;;;80.63;;
21569;SDS011;57598;50.888;4.746;2023-12-20T12:02:25;85.35;;;79.00;;
21569;SDS011;57598;50.888;4.746;2023-12-20T12:04:53;85.10;;;78.60;;
21569;SDS011;57598;50.888;4.746;2023-12-20T12:07:21;87.20;;;80.68;;
21569;SDS011;57598;50.888;4.746;2023-12-20T12:09:48;83.68;;;77.70;;
21569;SDS011;57598;50.888;4.746;2023-12-20T12:12:16;91.03;;;82.70;;
21569;SDS011;57598;50.888;4.746;2023-12-20T12:14:44;90.88;;;83.75;;
21569;SDS011;57598;50.888;4.746;2023-12-20T12:17:13;88.07;;;81.38;;
21569;SDS011;57598;50.888;4.746;2023-12-20T12:19:41;86.95;;;80.40;;
21569;SDS011;57598;50.888;4.746;2023-12-20T12:22:09;82.40;;;75.90;;
21569;SDS011;57598;50.888;4.746;2023-12-20T12:24:38;84.43;;;77.55;;
21569;SDS011;57598;50.888;4.746;2023-12-20T12:27:06;84.15;;;77.30;;
21569;SDS011;57598;50.888;4.746;2023-12-20T12:29:33;84.03;;;77.47;;
21569;SDS011;57598;50.888;4.746;2023-12-20T12:32:01;85.43;;;78.72;;
21569;SDS011;57598;50.888;4.746;2023-12-20T12:34:32;87.28;;;80.80;;
21569;SDS011;57598;50.888;4.746;2023-12-20T12:37:00;85.93;;;79.43;;
21569;SDS011;57598;50.888;4.746;2023-12-20T12:39:27;84.53;;;78.03;;
21569;SDS011;57598;50.888;4.746;2023-12-20T12:41:55;87.35;;;80.75;;
21569;SDS011;57598;50.888;4.746;2023-12-20T12:44:22;88.05;;;80.40;;
21569;SDS011;57598;50.888;4.746;2023-12-20T12:46:50;83.50;;;76.50;;
21569;SDS011;57598;50.888;4.746;2023-12-20T12:49:18;83.95;;;77.78;;
21569;SDS011;57598;50.888;4.746;2023-12-20T12:51:48;86.50;;;80.10;;
21569;SDS011;57598;50.888;4.746;2023-12-20T12:54:15;84.78;;;77.85;;
21569;SDS011;57598;50.888;4.746;2023-12-20T12:56:43;88.55;;;80.05;;
21569;SDS011;57598;50.888;4.746;2023-12-20T12:59:12;86.75;;;80.45;;
21569;SDS011;57598;50.888;4.746;2023-12-20T13:01:40;88.38;;;81.70;;
21569;SDS011;57598;50.888;4.746;2023-12-20T13:04:07;85.20;;;78.28;;
21569;SDS011;57598;50.888;4.746;2023-12-20T13:06:35;85.50;;;78.47;;
21569;SDS011;57598;50.888;4.746;2023-12-20T13:09:04;86.07;;;79.47;;
21569;SDS011;57598;50.888;4.746;2023-12-20T13:11:31;89.68;;;82.40;;
21569;SDS011;57598;50.888;4.746;2023-12-20T13:13:59;89.53;;;82.05;;
21569;SDS011;57598;50.888;4.746;2023-12-20T13:16:26;87.43;;;80.65;;
21569;SDS011;57598;50.888;4.746;2023-12-20T13:18:53;87.22;;;80.63;;
21569;SDS011;57598;50.888;4.746;2023-12-20T13:21:21;88.25;;;81.68;;
21569;SDS011;57598;50.888;4.746;2023-12-20T13:23:48;88.93;;;82.43;;
21569;SDS011;57598;50.888;4.746;2023-12-20T13:26:17;90.57;;;82.95;;
21569;SDS011;57598;50.888;4.746;2023-12-20T13:28:44;85.68;;;79.25;;
21569;SDS011;57598;50.888;4.746;2023-12-20T13:31:11;91.13;;;82.72;;
21569;SDS011;57598;50.888;4.746;2023-12-20T13:33:38;89.25;;;82.45;;
21569;SDS011;57598;50.888;4.746;2023-12-20T13:36:07;92.13;;;85.00;;
21569;SDS011;57598;50.888;4.746;2023-12-20T13:38:34;88.68;;;81.97;;
21569;SDS011;57598;50.888;4.746;2023-12-20T13:41:01;86.40;;;79.80;;
21569;SDS011;57598;50.888;4.746;2023-12-20T13:43:30;90.00;;;82.60;;
21569;SDS011;57598;50.888;4.746;2023-12-20T13:45:58;90.80;;;82.93;;
21569;SDS011;57598;50.888;4.746;2023-12-20T13:48:25;89.43;;;82.72;;
21569;SDS011;57598;50.888;4.746;2023-12-20T13:50:52;90.95;;;83.80;;
21569;SDS011;57598;50.888;4.746;2023-12-20T13:53:22;88.45;;;81.45;;
21569;SDS011;57598;50.888;4.746;2023-12-20T13:55:49;88.80;;;82.00;;
21569;SDS011;57598;50.888;4.746;2023-12-20T13:58:17;91.47;;;84.68;;
21569;SDS011;57598;50.888;4.746;2023-12-20T14:00:46;84.53;;;78.10;;
21569;SDS011;57598;50.888;4.746;2023-12-20T14:03:14;88.38;;;80.78;;
21569;SDS011;57598;50.888;4.746;2023-12-20T14:05:41;87.53;;;80.82;;
21569;SDS011;57598;50.888;4.746;2023-12-20T14:08:08;91.53;;;84.20;;
21569;SDS011;57598;50.888;4.746;2023-12-20T14:10:35;90.55;;;83.55;;
21569;SDS011;57598;50.888;4.746;2023-12-20T14:13:03;86.55;;;79.82;;
21569;SDS011;57598;50.888;4.746;2023-12-20T14:15:31;94.18;;;85.93;;
21569;SDS011;57598;50.888;4.746;2023-12-20T14:18:04;93.78;;;86.05;;
21569;SDS011;57598;50.888;4.746;2023-12-20T14:20:33;86.40;;;79.60;;
21569;SDS011;57598;50.888;4.746;2023-12-20T14:23:00;85.28;;;78.13;;
21569;SDS011;57598;50.888;4.746;2023-12-20T14:25:27;90.03;;;82.45;;
21569;SDS011;57598;50.888;4.746;2023-12-20T14:27:55;89.90;;;82.50;;
21569;SDS011;57598;50.888;4.746;2023-12-20T14:30:23;88.18;;;81.53;;
21569;SDS011;57598;50.888;4.746;2023-12-20T14:32:50;84.25;;;77.80;;
21569;SDS011;57598;50.888;4.746;2023-12-20T14:35:19;82.25;;;76.05;;
21569;SDS011;57598;50.888;4.746;2023-12-20T14:37:46;82.97;;;76.68;;
21569;SDS011;57598;50.888;4.746;2023-12-20T14:40:15;88.15;;;81.65;;
21569;SDS011;57598;50.888;4.746;2023-12-20T14:42:42;85.25;;;78.43;;
21569;SDS011;57598;50.888;4.746;2023-12-20T14:45:09;85.97;;;79.38;;